Time;durP1;ratioP1;P1;durP2;ratioP2;P2;SDS_P1;SDS_P2;PMS_P1;PMS_P2;Temp;Humidity;BMP_temperature;BMP_pressure;BME280_temperature;BME280_humidity;BME280_pressure;Samples;Min_cycle;Max_cycle;Signal;HPM_P1;HPM_P2
2023/01/02 00:01:26;;;;;;;;;3.75;1.00;;;;;15.29;71.88;100965.31;4959101;28;45359;-84
2023/01/02 00:03:54;;;;;;;;;2.00;1.00;;;;;15.26;72.64;100965.44;4958811;28;45525;-84
2023/01/02 00:06:19;;;;;;;;;0.00;0.00;;;;;15.23;72.27;100975.22;4958720;28;47331;-84
2023/01/02 00:08:45;;;;;;;;;3.25;1.00;;;;;15.19;72.87;100976.28;4957111;28;45354;-84
2023/01/02 00:11:10;;;;;;;;;1.00;1.00;;;;;15.16;73.11;100971.19;4958293;28;53751;-84
2023/01/02 00:13:35;;;;;;;;;2.00;0.75;;;;;15.13;73.65;100998.38;4958206;28;57394;-84
2023/01/02 00:16:01;;;;;;;;;1.75;1.00;;;;;15.07;74.03;100999.50;4957803;28;67386;-85
2023/01/02 00:18:26;;;;;;;;;1.50;0.50;;;;;15.03;74.51;100994.47;4940770;28;62539;-84
2023/01/02 00:20:51;;;;;;;;;2.50;1.25;;;;;14.98;74.48;100991.19;4958044;28;63146;-84
2023/01/02 00:23:17;;;;;;;;;2.50;1.00;;;;;14.92;75.57;100989.69;4957860;28;57193;-83
2023/01/02 00:25:42;;;;;;;;;1.75;1.25;;;;;14.86;75.83;100993.41;4958080;28;57123;-84
2023/01/02 00:28:07;;;;;;;;;0.00;0.00;;;;;14.81;76.15;100991.91;4940627;28;60791;-84
2023/01/02 00:30:33;;;;;;;;;2.00;1.00;;;;;14.73;76.75;101004.47;4939439;28;56738;-84
2023/01/02 00:32:58;;;;;;;;;4.00;1.00;;;;;14.65;77.14;101002.16;4958204;28;56062;-84
2023/01/02 00:35:23;;;;;;;;;0.50;0.00;;;;;14.58;77.71;101034.78;4958459;28;46198;-84
2023/01/02 00:37:50;;;;;;;;;3.00;1.00;;;;;14.51;77.84;101016.66;4957397;28;59966;-84
2023/01/02 00:40:16;;;;;;;;;0.00;0.00;;;;;14.46;78.00;101010.75;4958698;28;45531;-83
2023/01/02 00:42:42;;;;;;;;;0.25;0.00;;;;;14.41;78.43;101007.50;4957949;28;50417;-84
2023/01/02 00:45:09;;;;;;;;;1.50;0.00;;;;;14.32;79.62;101021.81;4940826;28;46670;-85
2023/01/02 00:47:34;;;;;;;;;1.75;1.00;;;;;14.25;79.85;101028.19;4958188;28;45431;-84
2023/01/02 00:49:59;;;;;;;;;2.00;0.75;;;;;14.21;79.41;101015.25;4958481;28;45419;-84
2023/01/02 00:52:25;;;;;;;;;1.50;1.00;;;;;14.17;79.82;101004.09;4957668;28;50893;-83
2023/01/02 00:54:50;;;;;;;;;0.00;0.00;;;;;14.12;80.29;101011.25;4940036;28;65911;-83
2023/01/02 00:57:15;;;;;;;;;3.00;0.00;;;;;14.08;80.49;101007.06;4957849;28;50791;-83
2023/01/02 00:59:41;;;;;;;;;0.00;0.00;;;;;14.04;81.37;101008.97;4957854;28;45421;-83
2023/01/02 01:02:06;;;;;;;;;2.25;1.00;;;;;14.00;81.64;101012.56;4957315;28;66642;-83
2023/01/02 01:04:33;;;;;;;;;0.25;0.00;;;;;13.97;82.01;101011.84;4956923;28;65142;-83
2023/01/02 01:06:58;;;;;;;;;3.00;0.00;;;;;13.94;82.28;101013.66;4957577;28;45767;-82
2023/01/02 01:09:24;;;;;;;;;2.00;1.00;;;;;13.92;82.58;101019.88;4957846;28;45282;-84
2023/01/02 01:11:49;;;;;;;;;0.00;0.00;;;;;13.88;82.81;101031.38;4957390;28;64157;-83
2023/01/02 01:14:14;;;;;;;;;1.00;0.00;;;;;13.84;82.86;101030.66;4957172;28;64881;-83
2023/01/02 01:16:40;;;;;;;;;2.75;0.00;;;;;13.83;82.57;101028.94;4940526;28;45371;-83
2023/01/02 01:19:06;;;;;;;;;0.00;0.00;;;;;13.82;83.17;101023.75;4957992;28;45349;-84
2023/01/02 01:21:31;;;;;;;;;0.75;0.75;;;;;13.80;82.95;101026.44;4957296;28;45495;-83
2023/01/02 01:23:56;;;;;;;;;4.00;0.00;;;;;13.77;82.68;101029.16;4957701;28;46617;-83
2023/01/02 01:26:22;;;;;;;;;1.00;0.50;;;;;13.73;83.44;101033.66;4939722;28;59093;-83
2023/01/02 01:28:48;;;;;;;;;0.00;0.00;;;;;13.73;83.54;101038.06;4940317;28;45359;-83
2023/01/02 01:31:15;;;;;;;;;1.50;0.00;;;;;13.71;83.71;101038.09;4940125;28;45590;-83
2023/01/02 01:33:41;;;;;;;;;2.00;0.75;;;;;13.70;83.65;101036.38;4957502;28;46520;-83
2023/01/02 01:36:21;;;;;;;;;1.75;0.00;;;;;13.68;84.14;101042.59;4939970;28;45318;-83
2023/01/02 01:38:46;;;;;;;;;1.25;0.00;;;;;13.65;84.17;101033.09;4957441;28;45401;-82
2023/01/02 01:41:16;;;;;;;;;2.50;0.50;;;;;13.66;84.51;101040.03;4923855;28;45286;-83
2023/01/02 01:43:45;;;;;;;;;0.00;0.00;;;;;13.64;84.71;101030.53;4939917;28;48166;-83
2023/01/02 01:46:36;;;;;;;;;0.75;0.75;;;;;13.63;84.48;101034.06;4957261;28;45707;-83
2023/01/02 01:49:09;;;;;;;;;4.00;0.50;;;;;13.59;84.71;101035.94;4957324;28;45602;-83
2023/01/02 01:51:49;;;;;;;;;2.00;1.00;;;;;13.55;85.20;101031.72;4957040;28;45317;-83
2023/01/02 01:54:19;;;;;;;;;0.50;0.00;;;;;13.53;85.41;101042.25;4923665;28;47390;-83
2023/01/02 01:56:49;;;;;;;;;0.00;0.00;;;;;13.51;84.74;101036.22;4939806;28;45381;-83
2023/01/02 01:59:15;;;;;;;;;3.00;0.00;;;;;13.54;85.08;101045.72;4939627;28;45434;-83
2023/01/02 02:01:41;;;;;;;;;0.00;0.00;;;;;13.51;84.77;101049.28;4955163;28;68246;-83
2023/01/02 02:04:08;;;;;;;;;0.00;0.00;;;;;13.49;85.54;101074.66;4939451;28;54322;-83
2023/01/02 02:06:34;;;;;;;;;0.00;0.00;;;;;13.46;85.13;101066.91;4939568;28;45478;-83
2023/01/02 02:09:12;;;;;;;;;2.00;0.50;;;;;13.45;85.89;101080.91;4938968;28;64512;-83
2023/01/02 02:11:38;;;;;;;;;0.00;0.00;;;;;13.43;85.44;101081.84;4939670;28;45462;-83
2023/01/02 02:14:04;;;;;;;;;0.00;0.00;;;;;13.41;86.02;101081.91;4938986;28;62946;-83
2023/01/02 02:16:29;;;;;;;;;3.00;0.00;;;;;13.37;85.57;101085.53;4956700;28;45380;-83
2023/01/02 02:19:13;;;;;;;;;0.00;0.00;;;;;13.37;85.99;101090.75;4956600;28;45344;-83
2023/01/02 02:21:50;;;;;;;;;0.00;0.00;;;;;13.36;86.03;101092.53;4956664;28;45421;-83
2023/01/02 02:24:35;;;;;;;;;2.00;0.75;;;;;13.33;85.22;101090.03;4953136;28;46382;-83
2023/01/02 02:27:24;;;;;;;;;0.00;0.00;;;;;13.31;85.77;101096.22;4939235;28;45355;-83
2023/01/02 02:30:03;;;;;;;;;0.25;0.25;;;;;13.28;85.54;101105.00;4956661;28;45331;-83
2023/01/02 02:32:45;;;;;;;;;0.00;0.00;;;;;13.26;85.93;101105.94;4956786;28;45409;-83
2023/01/02 02:35:26;;;;;;;;;0.50;0.50;;;;;13.25;85.87;101107.69;4938963;28;46438;-83
2023/01/02 02:38:50;;;;;;;;;1.00;0.00;;;;;13.22;85.85;101110.41;4939231;28;45404;-83
2023/01/02 02:41:30;;;;;;;;;0.50;0.00;;;;;13.15;86.30;101108.94;4894083;29;45365;-83
2023/01/02 02:44:04;;;;;;;;;0.00;0.00;;;;;13.14;86.33;101107.22;4896961;29;45400;-82
2023/01/02 02:46:55;;;;;;;;;0.00;0.00;;;;;13.05;86.51;101097.91;4896787;29;45633;-83
2023/01/02 02:49:46;;;;;;;;;0.00;0.00;;;;;13.01;86.61;101101.53;4896469;29;45684;-83
2023/01/02 02:52:11;;;;;;;;;0.75;0.00;;;;;12.99;86.21;101098.13;4896829;29;45311;-83
2023/01/02 02:54:42;;;;;;;;;0.00;0.00;;;;;12.98;85.95;101094.66;4900098;29;45402;-83
2023/01/02 02:57:08;;;;;;;;;0.00;0.00;;;;;12.98;85.88;101106.84;4899816;29;47264;-83
2023/01/02 02:59:35;;;;;;;;;0.00;0.00;;;;;12.93;86.66;101096.56;4899801;29;45562;-82
2023/01/02 03:02:02;;;;;;;;;0.00;0.00;;;;;12.90;86.20;101098.44;4900115;29;45451;-83
2023/01/02 03:04:27;;;;;;;;;0.00;0.00;;;;;12.83;86.41;101103.00;4899819;29;45588;-82
2023/01/02 03:07:10;;;;;;;;;0.00;0.00;;;;;12.77;86.36;101114.50;4899296;29;62478;-82
2023/01/02 03:09:54;;;;;;;;;0.00;0.00;;;;;12.77;86.89;101108.41;4884083;29;45535;-82
2023/01/02 03:12:45;;;;;;;;;0.00;0.00;;;;;12.77;86.79;101109.25;4900148;29;45543;-82
2023/01/02 03:15:15;;;;;;;;;0.00;0.00;;;;;12.74;86.92;101117.22;4924481;28;45726;-83
2023/01/02 03:17:46;;;;;;;;;0.00;0.00;;;;;12.71;89.77;101117.31;4939722;28;45572;-82
2023/01/02 03:20:16;;;;;;;;;0.00;0.00;;;;;12.71;87.17;101111.25;4940372;28;45524;-82
2023/01/02 03:22:45;;;;;;;;;0.00;0.00;;;;;12.71;87.42;101119.91;4939175;28;45621;-83
2023/01/02 03:25:12;;;;;;;;;0.00;0.00;;;;;12.70;87.04;101112.13;4938846;28;45606;-82
2023/01/02 03:27:43;;;;;;;;;0.00;0.00;;;;;12.68;87.16;101104.34;4938792;28;45483;-82
2023/01/02 03:30:13;;;;;;;;;0.00;0.00;;;;;12.69;87.35;101100.00;4939716;28;45335;-82
2023/01/02 03:32:43;;;;;;;;;0.00;0.00;;;;;12.69;86.68;101113.03;4954710;28;45475;-82
2023/01/02 03:35:13;;;;;;;;;0.00;0.00;;;;;12.64;87.54;101114.94;4938774;28;45430;-83
2023/01/02 03:37:44;;;;;;;;;0.00;0.00;;;;;12.58;86.96;101118.59;4938668;28;47483;-82
2023/01/02 03:40:13;;;;;;;;;0.00;0.00;;;;;12.55;87.25;101116.91;4938804;28;45355;-83
2023/01/02 03:42:45;;;;;;;;;0.00;0.00;;;;;12.56;87.31;101125.63;4938546;28;45387;-82
2023/01/02 03:45:16;;;;;;;;;0.00;0.00;;;;;12.56;87.11;101136.06;4938655;28;45329;-82
2023/01/02 03:48:00;;;;;;;;;0.00;0.00;;;;;12.55;86.94;101142.19;4939388;28;46263;-82
2023/01/02 03:50:32;;;;;;;;;0.00;0.00;;;;;12.51;86.94;101154.47;4938571;28;45663;-82
2023/01/02 03:52:58;;;;;;;;;0.00;0.00;;;;;12.48;86.58;101156.31;4936347;28;45323;-82
2023/01/02 03:55:26;;;;;;;;;0.00;0.00;;;;;12.44;87.15;101152.94;4938528;28;45520;-83
2023/01/02 03:58:06;;;;;;;;;0.00;0.00;;;;;12.44;86.60;101157.31;4937643;28;72158;-82
2023/01/02 04:00:36;;;;;;;;;0.00;0.00;;;;;12.43;86.86;101161.69;4951364;28;45504;-82
2023/01/02 04:03:01;;;;;;;;;0.00;0.00;;;;;12.40;86.78;101165.25;4941910;28;45626;-82
2023/01/02 04:05:31;;;;;;;;;0.00;0.00;;;;;12.38;87.02;101169.66;4958980;28;45444;-83
2023/01/02 04:08:21;;;;;;;;;0.00;0.00;;;;;12.37;86.85;101173.19;4958641;28;45329;-83
2023/01/02 04:10:48;;;;;;;;;0.00;0.00;;;;;12.36;87.29;101176.69;4958800;28;45643;-83
2023/01/02 04:13:19;;;;;;;;;0.00;0.00;;;;;12.33;87.16;101171.56;4941800;28;45600;-82
2023/01/02 04:15:46;;;;;;;;;0.00;0.00;;;;;12.33;87.21;101171.56;4941282;28;45801;-82
2023/01/02 04:18:19;;;;;;;;;0.00;0.00;;;;;12.31;87.65;101173.38;4958342;28;45690;-82
2023/01/02 04:20:46;;;;;;;;;0.00;0.00;;;;;12.28;87.91;101165.63;4941487;28;45738;-83
2023/01/02 04:23:34;;;;;;;;;0.00;0.00;;;;;12.27;87.94;101169.13;4941522;28;45364;-83
2023/01/02 04:26:03;;;;;;;;;0.00;0.00;;;;;12.24;87.65;101179.66;4957936;28;45447;-82
2023/01/02 04:28:30;;;;;;;;;0.00;0.00;;;;;12.24;88.01;101173.56;4958565;28;45653;-83
2023/01/02 04:31:06;;;;;;;;;0.00;0.00;;;;;12.25;87.81;101168.31;4940859;28;45502;-82
2023/01/02 04:33:35;;;;;;;;;0.00;0.00;;;;;12.28;88.21;101185.66;4958708;28;45341;-83
2023/01/02 04:36:12;;;;;;;;;0.00;0.00;;;;;12.27;88.20;101190.00;4941250;28;45390;-82
2023/01/02 04:38:37;;;;;;;;;0.00;0.00;;;;;12.25;88.40;101188.34;4958456;28;47467;-83
2023/01/02 04:41:03;;;;;;;;;0.00;0.00;;;;;12.20;88.14;101189.34;4957770;28;65393;-83
2023/01/02 04:43:28;;;;;;;;;0.00;0.00;;;;;12.17;88.85;101202.47;4942665;28;45522;-82
2023/01/02 04:45:54;;;;;;;;;0.00;0.00;;;;;12.14;88.71;101196.47;4963632;28;62261;-82
2023/01/02 04:48:19;;;;;;;;;0.00;0.00;;;;;12.14;88.63;101199.06;4965351;28;45404;-83
2023/01/02 04:50:45;;;;;;;;;1.00;0.00;;;;;12.12;89.17;101209.56;4958798;28;58618;-82
2023/01/02 04:53:10;;;;;;;;;0.00;0.00;;;;;12.10;88.76;101218.34;4958919;28;45560;-83
2023/01/02 04:55:36;;;;;;;;;0.00;0.00;;;;;12.08;89.34;101212.31;4958361;28;45336;-83
2023/01/02 04:58:02;;;;;;;;;0.00;0.00;;;;;12.06;89.12;101211.50;4958082;28;46104;-82
2023/01/02 05:00:27;;;;;;;;;0.00;0.00;;;;;12.06;89.47;101214.94;4957656;28;45422;-82
2023/01/02 05:02:52;;;;;;;;;0.00;0.00;;;;;12.05;89.41;101223.66;4957483;28;57345;-82
2023/01/02 05:05:18;;;;;;;;;0.00;0.00;;;;;12.06;89.34;101232.38;4957233;28;60880;-83
2023/01/02 05:07:43;;;;;;;;;0.00;0.00;;;;;12.06;89.89;101233.22;4957339;28;56529;-82
2023/01/02 05:10:08;;;;;;;;;0.00;0.00;;;;;12.08;89.64;101241.00;4939828;28;64469;-82
2023/01/02 05:12:35;;;;;;;;;0.50;0.00;;;;;12.06;89.95;101245.41;4958039;28;45328;-82
2023/01/02 05:15:01;;;;;;;;;0.00;0.00;;;;;12.05;90.08;101248.91;4940026;28;45337;-83
2023/01/02 05:17:27;;;;;;;;;0.00;0.00;;;;;12.04;89.96;101257.66;4940356;28;46067;-83
2023/01/02 05:19:52;;;;;;;;;0.00;0.00;;;;;12.03;90.14;101266.38;4939972;28;64444;-83
2023/01/02 05:25:01;;;;;;;;;0.00;0.00;;;;;12.01;90.41;101269.00;4958059;28;45388;-82
2023/01/02 05:27:26;;;;;;;;;0.00;0.00;;;;;12.00;90.56;101270.78;4956605;28;66250;-83
2023/01/02 05:29:52;;;;;;;;;0.00;0.00;;;;;12.03;90.15;101279.41;4951159;28;65787;-83
2023/01/02 05:32:17;;;;;;;;;0.00;0.00;;;;;12.02;90.39;101281.16;4956902;28;64670;-82
2023/01/02 05:34:42;;;;;;;;;0.00;0.00;;;;;12.03;90.36;101285.47;4957145;28;63033;-83
2023/01/02 05:37:08;;;;;;;;;0.00;0.00;;;;;12.07;90.42;101300.19;4956087;28;54206;-83
2023/01/02 05:39:33;;;;;;;;;0.00;0.00;;;;;12.05;90.10;101299.34;4956798;28;65692;-83
2023/01/02 05:41:58;;;;;;;;;0.00;0.00;;;;;12.02;90.00;101304.66;4957923;28;45369;-82
2023/01/02 05:44:24;;;;;;;;;0.00;0.00;;;;;12.01;90.52;101309.00;4957703;28;58377;-83
2023/01/02 05:46:49;;;;;;;;;0.00;0.00;;;;;12.03;90.46;101303.75;4956732;28;64228;-83
2023/01/02 05:49:14;;;;;;;;;0.00;0.00;;;;;12.03;90.39;101300.28;4956979;28;59972;-83
2023/01/02 05:51:40;;;;;;;;;0.00;0.00;;;;;12.03;90.70;101310.72;4956920;28;57876;-83
2023/01/02 05:54:06;;;;;;;;;0.00;0.00;;;;;12.00;91.13;101306.44;4939352;28;64329;-83
2023/01/02 05:56:31;;;;;;;;;0.00;0.00;;;;;11.98;91.11;101316.06;4939863;28;47232;-83
2023/01/02 05:58:57;;;;;;;;;0.00;0.00;;;;;11.96;90.72;101318.72;4957270;28;45486;-83
2023/01/02 06:01:25;;;;;;;;;0.00;0.00;;;;;11.92;91.16;101317.09;4957260;28;45404;-83
2023/01/02 06:03:53;;;;;;;;;0.00;0.00;;;;;11.90;91.07;101318.84;4957510;28;45639;-83
2023/01/02 06:06:24;;;;;;;;;0.00;0.00;;;;;11.89;91.40;101316.28;4957050;28;45234;-82
2023/01/02 06:08:50;;;;;;;;;0.00;0.00;;;;;11.87;91.42;101312.81;4923695;28;45667;-83
2023/01/02 06:11:16;;;;;;;;;0.00;0.00;;;;;11.86;91.27;101313.72;4939739;28;45360;-83
2023/01/02 06:13:41;;;;;;;;;0.00;0.00;;;;;11.86;91.35;101329.38;4939947;28;45429;-83
2023/01/02 06:16:08;;;;;;;;;0.00;0.00;;;;;11.84;91.72;101320.75;4939668;28;45477;-83
2023/01/02 06:18:35;;;;;;;;;0.00;0.00;;;;;11.84;91.57;101321.59;4955769;28;45730;-83
2023/01/02 06:21:01;;;;;;;;;0.00;0.00;;;;;11.84;91.49;101324.19;4939907;28;45398;-83
2023/01/02 06:23:27;;;;;;;;;0.00;0.00;;;;;11.84;91.88;101323.34;4955889;28;45430;-83
2023/01/02 06:25:53;;;;;;;;;1.00;0.00;;;;;11.84;91.48;101325.97;4939344;28;45766;-83
2023/01/02 06:28:18;;;;;;;;;0.00;0.00;;;;;11.83;91.41;101332.94;4938018;28;59043;-83
2023/01/02 06:30:43;;;;;;;;;0.00;0.00;;;;;11.82;91.71;101333.81;4957022;28;45801;-83
2023/01/02 06:33:09;;;;;;;;;0.00;0.00;;;;;11.78;91.67;101345.22;4939704;28;45419;-83
2023/01/02 06:35:34;;;;;;;;;0.00;0.00;;;;;11.77;91.48;101360.00;4956336;28;62276;-83
2023/01/02 06:37:59;;;;;;;;;1.50;0.00;;;;;11.77;91.88;101359.16;4939141;28;67305;-83
2023/01/02 06:40:25;;;;;;;;;0.00;0.00;;;;;11.76;91.56;101360.91;4956847;28;45590;-83
2023/01/02 06:42:50;;;;;;;;;0.00;0.00;;;;;11.76;91.50;101366.13;4939671;28;45336;-83
2023/01/02 06:45:16;;;;;;;;;0.00;0.00;;;;;11.72;91.19;101361.88;4956122;28;65806;-83
2023/01/02 06:47:41;;;;;;;;;0.00;0.00;;;;;11.70;91.32;101362.78;4956208;28;63761;-83
2023/01/02 06:50:07;;;;;;;;;0.00;0.00;;;;;11.70;91.18;101365.41;4956946;28;45401;-83
2023/01/02 06:52:32;;;;;;;;;0.00;0.00;;;;;11.71;91.50;101369.72;4956895;28;45276;-83
2023/01/02 06:54:57;;;;;;;;;0.00;0.00;;;;;11.68;91.55;101370.66;4955991;28;53231;-83
2023/01/02 06:57:23;;;;;;;;;0.00;0.00;;;;;11.72;91.42;101372.31;4938549;28;66343;-83
2023/01/02 06:59:48;;;;;;;;;0.00;0.00;;;;;11.71;91.44;101369.72;4956459;28;45324;-84
2023/01/02 07:02:13;;;;;;;;;0.00;0.00;;;;;11.73;91.68;101376.63;4956538;28;45421;-83
2023/01/02 07:04:39;;;;;;;;;0.25;0.00;;;;;11.75;91.41;101382.66;4956388;28;46329;-83
2023/01/02 07:07:05;;;;;;;;;0.00;0.00;;;;;11.78;91.42;101379.13;4956632;28;45363;-83
2023/01/02 07:09:31;;;;;;;;;1.00;0.00;;;;;11.78;91.46;101379.97;4934154;28;45436;-83
2023/01/02 07:11:59;;;;;;;;;0.00;0.00;;;;;11.78;91.25;101379.13;4956671;28;45325;-83
2023/01/02 07:14:25;;;;;;;;;0.00;0.00;;;;;11.76;91.18;101387.00;4956407;28;46993;-83
2023/01/02 07:16:50;;;;;;;;;0.00;0.00;;;;;11.74;90.96;101377.50;4956282;28;45372;-83
2023/01/02 07:19:16;;;;;;;;;0.00;0.00;;;;;11.74;91.31;101377.50;4938448;28;61361;-83
2023/01/02 07:21:41;;;;;;;;;0.00;0.00;;;;;11.74;90.88;101374.88;4939062;28;45432;-83
2023/01/02 07:24:11;;;;;;;;;0.00;0.00;;;;;11.73;91.05;101381.84;4955385;28;62560;-83
2023/01/02 07:26:36;;;;;;;;;0.00;0.00;;;;;11.76;91.33;101384.38;4956245;28;45380;-83
2023/01/02 07:29:01;;;;;;;;;0.00;0.00;;;;;11.76;90.56;101370.50;4956150;28;45382;-83
2023/01/02 07:31:28;;;;;;;;;0.00;0.00;;;;;11.73;90.37;101381.84;4938516;28;47696;-83
2023/01/02 07:33:54;;;;;;;;;0.00;0.00;;;;;11.72;90.54;101381.84;4955821;28;46559;-83
2023/01/02 07:36:21;;;;;;;;;0.00;0.00;;;;;11.74;90.41;101382.72;4938587;28;45362;-83
2023/01/02 07:38:53;;;;;;;;;0.00;0.00;;;;;11.71;90.16;101382.78;4956592;28;45388;-83
2023/01/02 07:41:21;;;;;;;;;1.00;0.00;;;;;11.67;90.04;101388.97;4941951;28;45501;-83
2023/01/02 07:43:47;;;;;;;;;1.00;0.00;;;;;11.66;90.11;101395.06;4959059;28;47242;-83
2023/01/02 07:46:14;;;;;;;;;0.00;0.00;;;;;11.67;90.48;101415.03;4959086;28;45384;-82
2023/01/02 07:48:39;;;;;;;;;0.00;0.00;;;;;11.65;89.65;101422.03;4959337;28;45399;-83
2023/01/02 07:51:06;;;;;;;;;0.00;0.00;;;;;11.62;89.46;101434.22;4958764;28;58483;-83
2023/01/02 07:53:31;;;;;;;;;0.00;0.00;;;;;11.63;89.81;101429.88;4958595;28;47417;-83
2023/01/02 07:55:57;;;;;;;;;0.00;0.00;;;;;11.63;89.24;101435.09;4941344;28;55164;-83
2023/01/02 07:58:23;;;;;;;;;0.00;0.00;;;;;11.62;89.45;101431.63;4959177;28;45353;-83
2023/01/02 08:00:49;;;;;;;;;1.75;0.00;;;;;11.65;89.58;101440.28;4958813;28;45360;-84
2023/01/02 08:03:14;;;;;;;;;0.25;0.00;;;;;11.65;89.33;101437.69;4957593;28;46274;-84
2023/01/02 08:05:40;;;;;;;;;0.00;0.00;;;;;11.63;89.28;101451.59;4941338;28;45353;-83
2023/01/02 08:08:05;;;;;;;;;0.00;0.00;;;;;11.63;89.49;101463.78;4941177;28;45499;-94
2023/01/02 08:10:31;;;;;;;;;1.00;0.00;;;;;11.62;89.30;101465.50;4942260;28;45487;-89
2023/01/02 08:13:07;;;;;;;;;0.00;0.00;;;;;11.65;89.27;101482.03;4959584;28;45348;-91
2023/01/02 08:15:38;;;;;;;;;0.00;0.00;;;;;11.65;89.26;101490.69;4943023;28;45321;-90
2023/01/02 08:18:21;;;;;;;;;1.00;0.00;;;;;11.65;89.37;101480.25;4942659;28;45658;-91
2023/01/02 08:20:49;;;;;;;;;0.00;0.00;;;;;11.67;89.37;101483.69;4959781;28;45316;-90
2023/01/02 08:23:51;;;;;;;;;;;;;;;;;;;;;
2023/01/02 08:27:17;;;;;;;;;;;;;;;;;;;;;
2023/01/02 08:33:27;;;;;;;;;0.00;0.00;;;;;11.78;88.56;101506.94;4862045;29;45759;-92
2023/01/02 08:35:58;;;;;;;;;0.00;0.00;;;;;11.76;88.25;101509.56;4862408;29;45415;-92
2023/01/02 08:38:59;;;;;;;;;0.00;0.00;;;;;11.77;88.34;101505.22;4862816;29;46473;-92
2023/01/02 08:48:35;;;;;;;;;;;;;;;;;;;;;
2023/01/02 08:55:05;;;;;;;;;;;;;;;;;;;;;
2023/01/02 08:58:30;;;;;;;;;;;;;;;;;;;;;
2023/01/02 09:04:06;;;;;;;;;;;;;;;;;;;;;
2023/01/02 09:07:05;;;;;;;;;0.00;0.00;;;;;11.62;87.88;101603.72;4712606;30;70440;-94
2023/01/02 09:09:30;;;;;;;;;0.00;0.00;;;;;11.62;87.29;101613.31;4718013;30;45425;-90
2023/01/02 09:11:59;;;;;;;;;0.00;0.00;;;;;11.60;87.58;101609.88;4703191;30;47905;-91
2023/01/02 09:14:24;;;;;;;;;0.00;0.00;;;;;11.59;88.04;101619.44;4720811;30;45785;-92
2023/01/02 09:16:58;;;;;;;;;0.25;0.00;;;;;11.58;87.86;101624.69;4725199;29;45297;-93
2023/01/02 09:19:51;;;;;;;;;;;;;;;;;;;;;
2023/01/02 09:22:32;;;;;;;;;0.00;0.00;;;;;11.52;88.08;101611.78;4751648;29;75425;-93
2023/01/02 09:25:05;;;;;;;;;0.50;0.00;;;;;11.54;88.26;101604.78;4737638;29;45694;-92
2023/01/02 09:27:30;;;;;;;;;0.00;0.00;;;;;11.57;88.33;101596.88;4792270;29;45367;-93
2023/01/02 09:30:13;;;;;;;;;0.00;0.00;;;;;11.62;88.38;101614.16;4783420;29;45455;-94
2023/01/02 09:32:40;;;;;;;;;0.75;0.00;;;;;11.64;88.32;101621.97;4900833;29;45669;-90
2023/01/02 09:35:16;;;;;;;;;;;;;;;;;;;;;
2023/01/02 09:37:44;;;;;;;;;0.00;0.00;;;;;11.71;88.50;101631.38;4916385;28;70133;-92
2023/01/02 09:40:21;;;;;;;;;;;;;;;;;;;;;
2023/01/02 09:42:59;;;;;;;;;0.00;0.00;;;;;11.72;87.64;101642.66;4942464;28;75342;-92
2023/01/02 09:45:35;;;;;;;;;0.00;0.00;;;;;11.72;87.70;101640.94;4943555;28;45653;-92
2023/01/02 09:48:11;;;;;;;;;0.00;0.00;;;;;11.69;87.33;101643.59;4942858;28;45442;-89
2023/01/02 09:50:36;;;;;;;;;0.00;0.00;;;;;11.67;87.26;101654.97;4943153;28;45474;-93
2023/01/02 09:53:02;;;;;;;;;2.00;0.00;;;;;11.66;87.53;101663.66;4941886;28;48975;-93
2023/01/02 09:55:28;;;;;;;;;0.25;0.00;;;;;11.67;87.69;101675.81;4942716;28;45423;-93
2023/01/02 09:58:15;;;;;;;;;;;;;;;;;;;;;
2023/01/02 10:00:59;;;;;;;;;;;;;;;;;;;;;
2023/01/02 10:03:43;;;;;;;;;;;;;;;;;;;;;
2023/01/02 10:07:00;;;;;;;;;;;;;;;;;;;;;
2023/01/02 10:28:28;;;;;;;;;;;;;;;;;;;;;
2023/01/02 10:31:31;;;;;;;;;2.00;0.00;;;;;11.88;86.70;101691.06;4889729;28;69377;-88
2023/01/02 10:34:58;;;;;;;;;1.50;0.00;;;;;11.95;86.43;101689.22;4938739;28;46033;-91
2023/01/02 12:18:57;;;;;;;;;;;;;;;;;;;;;
2023/01/02 12:32:27;;;;;;;;;0.00;0.00;;;;;16.87;70.22;101813.22;4832291;29;45663;-90
2023/01/02 12:34:59;;;;;;;;;0.00;0.00;;;;;17.08;65.68;101815.94;4810396;29;45778;-89
2023/01/02 12:37:39;;;;;;;;;0.00;0.00;;;;;16.91;66.00;101816.59;4809619;29;45429;-89
2023/01/02 12:40:40;;;;;;;;;;;;;;;;;;;;;
2023/01/02 12:50:33;;;;;;;;;;;;;;;;;;;;;
2023/01/02 12:54:00;;;;;;;;;0.00;0.00;;;;;19.56;56.71;101834.06;4767881;29;69105;-92
2023/01/02 13:04:57;;;;;;;;;0.00;0.00;;;;;22.41;50.19;101843.16;4937718;28;45387;-90
2023/01/02 13:08:07;;;;;;;;;;;;;;;;;;;;;
2023/01/02 13:11:29;;;;;;;;;0.00;0.00;;;;;22.06;47.38;101858.53;4923182;28;73487;-92
2023/01/02 13:14:32;;;;;;;;;;;;;;;;;;;;;
2023/01/02 13:17:22;;;;;;;;;0.00;0.00;;;;;19.41;52.04;101860.31;4848879;29;45356;-91
2023/01/02 13:24:09;;;;;;;;;0.00;0.00;;;;;17.90;53.72;101872.28;4856413;29;46006;-91
2023/01/02 13:26:52;;;;;;;;;0.00;0.00;;;;;18.71;54.07;101886.38;4852560;29;45318;-91
2023/01/02 13:29:17;;;;;;;;;0.00;0.00;;;;;19.50;53.53;101882.75;4848626;29;45730;-91
2023/01/02 13:31:58;;;;;;;;;0.00;0.00;;;;;20.31;51.90;101885.81;4861488;29;46322;-91
2023/01/02 13:41:04;;;;;;;;;0.00;0.00;;;;;20.72;45.95;101892.53;4787625;29;45899;-91
2023/01/02 13:44:34;;;;;;;;;0.00;0.00;;;;;21.00;46.00;101897.19;4771561;29;46551;-92
2023/01/02 13:47:46;;;;;;;;;0.00;0.00;;;;;21.87;45.34;101894.06;4750010;29;45700;-91
2023/01/02 13:57:37;;;;;;;;;0.00;0.00;;;;;20.21;44.76;101903.09;4938722;28;45995;-90
2023/01/02 14:14:32;;;;;;;;;;;;;;;;;;;;;
2023/01/02 16:37:35;;;;;;;;;2.00;0.00;;;;;11.71;64.84;102131.31;4793391;29;45560;-91
2023/01/02 16:41:11;;;;;;;;;2.00;1.00;;;;;11.65;64.38;102126.19;4778228;29;45461;-93
2023/01/02 16:43:46;;;;;;;;;2.00;1.00;;;;;11.60;65.30;102129.69;4766001;29;45735;-91
2023/01/02 16:47:29;;;;;;;;;;;;;;;;;;;;;
2023/01/02 16:49:54;;;;;;;;;1.00;1.00;;;;;11.57;65.58;102142.78;4699947;30;45459;-91
2023/01/02 16:52:51;;;;;;;;;1.00;0.25;;;;;11.57;66.01;102150.59;4716976;30;45519;-93
2023/01/02 17:12:27;;;;;;;;;1.00;1.00;;;;;11.34;66.75;102166.47;5129624;27;45309;-88
2023/01/02 17:14:52;;;;;;;;;1.00;0.75;;;;;11.34;67.22;102171.66;5131869;27;45799;-88
2023/01/02 17:17:53;;;;;;;;;0.75;0.75;;;;;11.31;67.06;102174.31;5134599;27;45495;-91
2023/01/02 17:20:18;;;;;;;;;2.50;1.50;;;;;11.31;68.05;102176.94;5062505;27;45467;-87
2023/01/02 17:23:11;;;;;;;;;4.25;4.25;;;;;11.28;68.98;102182.16;5095577;27;47099;-89
2023/01/02 17:25:46;;;;;;;;;10.00;7.00;;;;;11.26;69.47;102176.09;5092616;27;45862;-87
2023/01/02 17:28:11;;;;;;;;;5.50;4.25;;;;;11.21;69.69;102176.13;5120844;27;45457;-87
2023/01/02 17:30:40;;;;;;;;;35.25;24.00;;;;;11.14;69.56;102182.25;5116448;27;45404;-81
2023/01/02 17:33:08;;;;;;;;;42.75;31.75;;;;;11.07;69.71;102183.22;5103776;27;46499;-85
2023/01/02 17:35:37;;;;;;;;;36.00;33.00;;;;;10.99;69.72;102188.47;5091249;27;45318;-86
2023/01/02 17:38:05;;;;;;;;;35.00;25.50;;;;;10.92;70.21;102186.81;5114110;27;45618;-86
2023/01/02 17:40:30;;;;;;;;;26.75;22.25;;;;;10.84;70.29;102196.38;5131394;27;45425;-86
2023/01/02 17:42:56;;;;;;;;;11.00;6.75;;;;;10.76;70.67;102201.66;5120010;27;47270;-86
2023/01/02 17:45:23;;;;;;;;;10.25;8.75;;;;;10.71;70.73;102202.56;5132342;27;45747;-86
2023/01/02 17:47:48;;;;;;;;;16.00;11.75;;;;;10.68;71.24;102200.84;5114625;27;45414;-86
2023/01/02 17:50:14;;;;;;;;;12.00;10.75;;;;;10.67;71.20;102204.31;5111251;27;45330;-87
2023/01/02 17:52:39;;;;;;;;;13.50;11.25;;;;;10.64;71.36;102202.59;5127611;27;52564;-87
2023/01/02 17:55:06;;;;;;;;;8.75;5.00;;;;;10.61;70.71;102210.44;5114835;27;45527;-87
2023/01/02 17:57:40;;;;;;;;;7.75;5.00;;;;;10.60;70.60;102215.63;5125584;27;45408;-85
2023/01/02 18:00:09;;;;;;;;;6.00;6.00;;;;;10.60;71.43;102219.09;5105094;27;45434;-87
2023/01/02 18:02:34;;;;;;;;;5.25;4.00;;;;;10.59;70.78;102225.19;5132748;27;47335;-88
2023/01/02 18:05:05;;;;;;;;;8.00;5.00;;;;;10.60;71.10;102223.44;5115054;27;45549;-87
2023/01/02 18:07:31;;;;;;;;;3.00;3.00;;;;;10.61;70.68;102228.66;5107525;27;45386;-87
2023/01/02 18:10:01;;;;;;;;;3.00;3.00;;;;;10.60;70.71;102234.72;5112465;27;45372;-87
2023/01/02 18:12:47;;;;;;;;;;;;;;;;;;;;;
2023/01/02 19:13:47;;;;;;;;;7.75;6.00;;;;;10.38;71.99;102288.66;5102699;22;46747;-87
2023/01/02 19:16:18;;;;;;;;;7.25;3.50;;;;;10.38;72.26;102292.97;4995926;28;46080;-87